createdAt,value
2018-07-02T00:02:14.503Z,42.80
2018-07-02T00:04:42.073Z,42.90
2018-07-02T00:07:13.434Z,43.50
2018-07-02T00:09:41.061Z,43.00
2018-07-02T00:12:08.663Z,43.00
2018-07-02T00:14:36.297Z,43.10
2018-07-02T00:17:03.985Z,43.30
2018-07-02T00:19:31.631Z,43.50
2018-07-02T00:21:59.220Z,43.40
2018-07-02T00:24:26.853Z,43.60
2018-07-02T00:26:54.513Z,44.10
2018-07-02T00:29:22.210Z,43.90
2018-07-02T00:31:49.844Z,44.00
2018-07-02T00:34:17.405Z,44.20
2018-07-02T00:36:44.984Z,44.30
2018-07-02T00:39:13.057Z,45.00
2018-07-02T00:41:41.713Z,44.60
2018-07-02T00:44:09.289Z,44.70
2018-07-02T00:46:36.893Z,45.00
2018-07-02T00:49:04.824Z,44.90
2018-07-02T00:51:32.698Z,45.10
2018-07-02T00:54:00.258Z,45.40
2018-07-02T00:56:27.882Z,45.40
2018-07-02T00:58:55.473Z,45.50
2018-07-02T01:01:25.877Z,45.90
2018-07-02T01:03:54.152Z,45.80
2018-07-02T01:06:21.740Z,46.50
2018-07-02T01:08:49.325Z,45.80
2018-07-02T01:11:16.888Z,45.90
2018-07-02T01:13:44.477Z,46.20
2018-07-02T01:16:12.078Z,46.00
2018-07-02T01:18:39.656Z,46.40
2018-07-02T01:21:07.236Z,46.70
2018-07-02T01:23:34.792Z,46.80
2018-07-02T01:26:02.397Z,47.70
2018-07-02T01:28:30.050Z,47.00
2018-07-02T01:30:57.637Z,46.90
2018-07-02T01:33:25.237Z,47.80
2018-07-02T01:35:52.803Z,47.50
2018-07-02T01:38:20.350Z,48.00
2018-07-02T01:40:47.925Z,48.50
2018-07-02T01:43:15.485Z,48.10
2018-07-02T01:45:43.061Z,47.60
2018-07-02T01:48:10.670Z,48.80
2018-07-02T01:50:38.249Z,49.00
2018-07-02T01:53:05.843Z,49.60
2018-07-02T01:55:33.480Z,49.80
2018-07-02T01:58:01.070Z,50.40
2018-07-02T02:00:28.633Z,50.70
2018-07-02T02:02:56.173Z,50.80
2018-07-02T02:05:23.757Z,51.20
2018-07-02T02:07:51.308Z,51.20
2018-07-02T02:10:18.868Z,51.60
2018-07-02T02:12:46.433Z,52.00
2018-07-02T02:15:14.005Z,52.00
2018-07-02T02:17:41.571Z,51.90
2018-07-02T02:20:09.132Z,52.80
2018-07-02T02:22:36.705Z,52.90
2018-07-02T02:25:05.085Z,52.80
2018-07-02T02:27:32.666Z,52.90
2018-07-02T02:30:00.264Z,53.00
2018-07-02T02:32:27.866Z,53.60
2018-07-02T02:34:55.461Z,53.70
2018-07-02T02:37:23.037Z,54.00
2018-07-02T02:39:50.621Z,54.30
2018-07-02T02:42:18.202Z,54.00
2018-07-02T02:44:45.800Z,54.80
2018-07-02T02:49:40.856Z,54.80
2018-07-02T02:52:08.437Z,55.40
2018-07-02T02:54:35.986Z,55.80
2018-07-02T02:57:03.563Z,55.50
2018-07-02T02:59:31.136Z,55.50
2018-07-02T03:01:58.737Z,55.90
2018-07-02T03:04:26.348Z,56.40
2018-07-02T03:06:53.949Z,55.90
2018-07-02T03:09:21.493Z,55.80
2018-07-02T03:14:16.583Z,56.50
2018-07-02T03:16:44.194Z,56.60
2018-07-02T03:19:11.772Z,56.20
2018-07-02T03:21:39.403Z,56.80
2018-07-02T03:24:06.988Z,56.70
2018-07-02T03:26:34.566Z,56.80
2018-07-02T03:29:02.181Z,56.50
2018-07-02T03:31:29.728Z,57.00
2018-07-02T03:33:57.281Z,56.60
2018-07-02T03:36:24.865Z,57.00
2018-07-02T03:38:52.449Z,57.00
2018-07-02T03:41:20.022Z,57.50
2018-07-02T03:43:47.597Z,57.20
2018-07-02T03:46:15.176Z,57.70
2018-07-02T03:48:42.760Z,56.60
2018-07-02T03:51:10.336Z,56.70
2018-07-02T03:53:37.908Z,57.30
2018-07-02T03:56:05.506Z,57.00
2018-07-02T04:01:00.503Z,57.50
2018-07-02T04:03:28.073Z,57.40
2018-07-02T04:05:55.681Z,58.10
2018-07-02T04:08:23.265Z,57.30
2018-07-02T04:10:50.837Z,57.00
2018-07-02T04:13:18.482Z,56.70
2018-07-02T04:15:46.045Z,57.50
2018-07-02T04:18:13.588Z,57.50
2018-07-02T04:20:41.166Z,57.50
2018-07-02T04:23:08.741Z,57.80
2018-07-02T04:25:36.312Z,57.70
2018-07-02T04:28:03.886Z,58.10
2018-07-02T04:30:31.462Z,57.50
2018-07-02T04:32:59.059Z,56.80
2018-07-02T04:35:26.629Z,57.40
2018-07-02T04:37:54.242Z,56.40
2018-07-02T04:40:21.859Z,56.40
2018-07-02T04:42:49.449Z,55.40
2018-07-02T04:45:17.117Z,54.90
2018-07-02T04:47:44.775Z,55.00
2018-07-02T04:50:12.324Z,55.30
2018-07-02T04:52:39.969Z,55.20
2018-07-02T04:55:07.637Z,55.50
2018-07-02T04:57:35.306Z,55.40
2018-07-02T05:00:02.974Z,55.70
2018-07-02T05:02:30.566Z,55.50
2018-07-02T05:04:58.142Z,55.60
2018-07-02T05:07:25.722Z,55.30
2018-07-02T05:09:53.462Z,55.00
2018-07-02T05:12:20.907Z,54.60
2018-07-02T05:14:48.546Z,54.40
2018-07-02T05:17:16.106Z,54.60
2018-07-02T05:19:43.689Z,54.80
2018-07-02T05:22:11.270Z,54.70
2018-07-02T05:24:38.846Z,54.30
2018-07-02T05:27:06.390Z,54.70
2018-07-02T05:32:08.380Z,54.90
2018-07-02T05:34:35.933Z,54.60
2018-07-02T05:37:03.531Z,54.30
2018-07-02T05:41:58.606Z,54.10
2018-07-02T05:44:26.213Z,54.00
2018-07-02T05:46:53.870Z,53.60
2018-07-02T05:49:21.625Z,53.90
2018-07-02T05:51:49.261Z,54.10
2018-07-02T05:54:16.840Z,54.50
2018-07-02T05:56:45.227Z,53.40
2018-07-02T05:59:12.755Z,52.60
2018-07-02T06:01:40.368Z,52.10
2018-07-02T06:04:07.945Z,51.80
2018-07-02T06:06:35.513Z,51.40
2018-07-02T06:09:06.289Z,51.10
2018-07-02T06:11:33.961Z,50.20
2018-07-02T06:14:01.569Z,50.10
2018-07-02T06:16:29.143Z,49.70
2018-07-02T06:18:56.705Z,49.20
2018-07-02T06:21:24.265Z,49.00
2018-07-02T06:23:51.836Z,48.80
2018-07-02T06:26:19.470Z,48.60
2018-07-02T06:28:47.009Z,48.30
2018-07-02T06:31:14.609Z,48.60
2018-07-02T06:33:42.147Z,47.90
2018-07-02T06:36:09.713Z,47.80
2018-07-02T06:38:37.289Z,47.40
2018-07-02T06:41:04.845Z,47.10
2018-07-02T06:43:32.427Z,46.70
2018-07-02T06:46:00.032Z,46.50
2018-07-02T06:48:27.695Z,46.10
2018-07-02T06:50:55.255Z,45.40
2018-07-02T06:53:22.860Z,44.90
2018-07-02T06:55:50.365Z,44.80
2018-07-02T06:58:17.968Z,44.80
2018-07-02T07:00:45.576Z,44.60
2018-07-02T07:03:13.132Z,44.80
2018-07-02T07:05:40.733Z,44.10
2018-07-02T07:08:08.341Z,43.80
2018-07-02T07:10:35.885Z,43.70
2018-07-02T07:13:03.515Z,43.70
2018-07-02T07:15:31.151Z,42.50
2018-07-02T07:17:58.685Z,40.70
2018-07-02T07:20:26.265Z,38.70
2018-07-02T07:22:53.858Z,37.60
2018-07-02T07:25:21.428Z,37.10
2018-07-02T07:27:48.969Z,38.00
2018-07-02T07:30:16.515Z,38.50
2018-07-02T07:32:44.108Z,38.20
2018-07-02T07:35:11.687Z,38.50
2018-07-02T07:37:40.605Z,37.30
2018-07-02T07:40:08.278Z,35.10
2018-07-02T07:42:36.575Z,30.40
2018-07-02T07:45:12.295Z,28.60
2018-07-02T07:47:39.926Z,26.90
2018-07-02T07:50:07.473Z,25.50
2018-07-02T07:52:35.038Z,24.30
2018-07-02T07:55:02.676Z,23.20
2018-07-02T07:57:30.249Z,22.00
2018-07-02T07:59:57.821Z,21.10
2018-07-02T08:02:25.452Z,20.80
2018-07-02T08:04:53.030Z,20.80
2018-07-02T08:07:20.712Z,20.60
2018-07-02T08:09:48.316Z,20.00
2018-07-02T08:12:16.420Z,19.90
2018-07-02T08:14:44.013Z,19.30
2018-07-02T08:17:11.615Z,18.50
2018-07-02T08:19:39.209Z,19.60
2018-07-02T08:22:07.225Z,19.80
2018-07-02T08:24:34.801Z,19.60
2018-07-02T08:27:02.402Z,18.90
2018-07-02T08:29:29.988Z,18.90
2018-07-02T08:31:57.565Z,18.60
2018-07-02T08:34:25.167Z,18.50
2018-07-02T08:36:53.038Z,18.70
2018-07-02T08:39:20.643Z,17.90
2018-07-02T08:41:48.288Z,17.50
2018-07-02T08:44:15.852Z,17.80
2018-07-02T08:46:43.535Z,17.90
2018-07-02T08:49:11.049Z,17.40
2018-07-02T08:51:38.651Z,17.50
2018-07-02T08:54:06.196Z,17.40
2018-07-02T08:56:33.838Z,17.60
2018-07-02T08:59:01.392Z,17.50
2018-07-02T09:01:28.953Z,17.30
2018-07-02T09:03:56.520Z,17.60
2018-07-02T09:06:24.159Z,17.90
2018-07-02T09:08:51.724Z,17.50
2018-07-02T09:11:19.292Z,17.70
2018-07-02T09:13:46.845Z,17.50
2018-07-02T09:16:14.486Z,17.90
2018-07-02T09:21:09.562Z,18.00
2018-07-02T09:23:37.121Z,18.10
2018-07-02T09:26:05.002Z,17.50
2018-07-02T09:28:32.634Z,17.60
2018-07-02T09:31:00.250Z,18.00
2018-07-02T09:33:34.557Z,17.90
2018-07-02T09:36:02.214Z,17.60
2018-07-02T09:38:29.830Z,16.90
2018-07-02T09:40:57.458Z,17.00
2018-07-02T09:43:25.030Z,16.20
2018-07-02T09:45:52.646Z,16.00
2018-07-02T09:48:20.209Z,16.70
2018-07-02T09:50:47.832Z,16.70
2018-07-02T09:53:15.405Z,17.10
2018-07-02T09:55:42.985Z,17.10
2018-07-02T09:58:10.565Z,17.60
2018-07-02T10:00:38.243Z,17.40
2018-07-02T10:03:07.335Z,17.00
2018-07-02T10:05:35.318Z,17.20
2018-07-02T10:08:02.934Z,18.00
2018-07-02T10:10:30.524Z,18.20
2018-07-02T10:12:58.159Z,17.90
2018-07-02T10:15:25.959Z,17.60
2018-07-02T10:17:53.650Z,17.10
2018-07-02T10:20:21.263Z,16.70
2018-07-02T10:22:48.861Z,16.50
2018-07-02T10:25:16.454Z,16.50
2018-07-02T10:27:44.007Z,16.40
2018-07-02T10:30:11.633Z,16.50
2018-07-02T10:32:39.194Z,16.80
2018-07-02T10:35:06.808Z,16.50
2018-07-02T10:37:34.381Z,16.80
2018-07-02T10:40:02.018Z,16.70
2018-07-02T10:42:29.586Z,16.80
2018-07-02T10:44:57.193Z,16.50
2018-07-02T10:47:24.748Z,16.80
2018-07-02T10:49:52.992Z,17.10
2018-07-02T10:52:20.592Z,17.00
2018-07-02T10:54:48.328Z,16.80
2018-07-02T10:57:16.170Z,16.90
2018-07-02T10:59:43.767Z,17.10
2018-07-02T11:02:11.401Z,17.50
2018-07-02T11:04:39.067Z,17.50
2018-07-02T11:07:06.690Z,17.80
2018-07-02T11:09:34.277Z,17.60
2018-07-02T11:14:29.350Z,18.40
2018-07-02T11:16:56.978Z,18.20
2018-07-02T11:19:24.577Z,18.00
2018-07-02T11:21:52.239Z,17.30
2018-07-02T11:24:19.901Z,17.10
2018-07-02T11:26:47.521Z,16.80
2018-07-02T11:29:15.177Z,16.90
2018-07-02T11:31:42.734Z,17.00
2018-07-02T11:34:10.362Z,17.20
2018-07-02T11:36:37.933Z,17.90
2018-07-02T11:39:07.902Z,18.40
2018-07-02T11:47:16.802Z,18.40
2018-07-02T11:49:44.538Z,17.90
2018-07-02T11:54:39.617Z,17.90
2018-07-02T11:57:07.240Z,18.30
2018-07-02T11:59:34.839Z,18.40
2018-07-02T12:02:02.505Z,18.70
2018-07-02T12:04:30.116Z,18.70
2018-07-02T12:06:57.765Z,18.20
2018-07-02T12:09:25.423Z,18.50
2018-07-02T12:11:53.068Z,19.50
2018-07-02T12:14:20.671Z,20.00
2018-07-02T12:16:48.339Z,19.80
2018-07-02T12:19:15.960Z,19.60
2018-07-02T12:21:43.565Z,19.50
2018-07-02T12:24:11.211Z,19.40
2018-07-02T12:26:38.861Z,20.40
2018-07-02T12:29:06.468Z,20.60
2018-07-02T12:31:34.109Z,20.70
2018-07-02T12:34:01.762Z,20.80
2018-07-02T12:36:29.539Z,21.00
2018-07-02T12:38:57.190Z,21.10
2018-07-02T12:41:24.853Z,20.90
2018-07-02T12:43:52.713Z,21.40
2018-07-02T12:46:20.377Z,22.10
2018-07-02T12:48:48.028Z,22.40
2018-07-02T12:51:15.624Z,22.70
2018-07-02T12:53:43.272Z,22.70
2018-07-02T12:56:10.920Z,22.90
2018-07-02T12:58:38.554Z,23.30
2018-07-02T13:01:06.213Z,23.60
2018-07-02T13:03:33.834Z,23.50
2018-07-02T13:06:01.519Z,23.30
2018-07-02T13:08:29.201Z,23.10
2018-07-02T13:10:56.880Z,23.00
2018-07-02T13:13:24.545Z,23.50
2018-07-02T13:15:52.213Z,23.00
2018-07-02T13:18:19.922Z,23.00
2018-07-02T13:20:47.582Z,22.50
2018-07-02T13:23:15.280Z,22.90
2018-07-02T13:25:42.904Z,23.70
2018-07-02T13:28:10.533Z,23.60
2018-07-02T13:30:38.137Z,23.50
2018-07-02T13:33:05.787Z,23.30
2018-07-02T13:35:33.465Z,23.80
2018-07-02T13:38:01.090Z,23.30
2018-07-02T13:40:28.745Z,23.80
2018-07-02T13:42:56.381Z,23.60
2018-07-02T13:45:24.037Z,23.70
2018-07-02T13:47:51.707Z,23.60
2018-07-02T13:50:19.306Z,23.50
2018-07-02T13:52:46.972Z,23.40
2018-07-02T13:55:14.658Z,23.70
2018-07-02T13:57:42.345Z,24.00
2018-07-02T14:00:10.082Z,24.50
2018-07-02T14:02:37.726Z,24.30
2018-07-02T14:05:05.534Z,24.40
2018-07-02T14:07:33.194Z,24.10
2018-07-02T14:10:01.178Z,24.10
2018-07-02T14:12:29.060Z,23.80
2018-07-02T14:14:57.239Z,24.20
2018-07-02T14:17:25.177Z,24.00
2018-07-02T14:19:53.270Z,23.80
2018-07-02T14:22:21.357Z,23.70
2018-07-02T14:24:50.314Z,23.80
2018-07-02T14:27:18.351Z,23.60
2018-07-02T14:29:46.315Z,24.00
2018-07-02T14:32:14.250Z,23.60
2018-07-02T14:34:42.178Z,24.10
2018-07-02T14:37:10.075Z,23.60
2018-07-02T14:39:38.068Z,23.20
2018-07-02T14:42:06.281Z,23.30
2018-07-02T14:44:34.267Z,23.50
2018-07-02T14:47:02.356Z,23.70
2018-07-02T14:49:30.349Z,23.50
2018-07-02T14:51:58.402Z,23.50
2018-07-02T14:54:26.285Z,23.30
2018-07-02T14:56:54.422Z,23.50
2018-07-02T14:59:22.486Z,23.70
2018-07-02T15:01:50.486Z,23.30
2018-07-02T15:04:18.456Z,23.60
2018-07-02T15:06:46.457Z,23.80
2018-07-02T15:09:14.519Z,23.60
2018-07-02T15:11:42.995Z,23.70
2018-07-02T15:14:10.882Z,23.70
2018-07-02T15:16:38.936Z,23.50
2018-07-02T15:19:07.505Z,23.40
2018-07-02T15:21:35.410Z,23.60
2018-07-02T15:24:03.357Z,23.30
2018-07-02T15:26:31.257Z,23.60
2018-07-02T15:28:59.247Z,23.80
2018-07-02T15:31:27.202Z,24.10
2018-07-02T15:33:55.223Z,24.20
2018-07-02T15:36:23.289Z,23.60
2018-07-02T15:38:51.299Z,23.70
2018-07-02T15:41:19.230Z,23.80
2018-07-02T15:43:47.410Z,23.80
2018-07-02T15:46:15.330Z,23.70
2018-07-02T15:48:43.308Z,23.30
2018-07-02T15:51:11.290Z,23.30
2018-07-02T15:53:39.350Z,23.70
2018-07-02T15:56:07.726Z,23.80
2018-07-02T15:58:35.635Z,24.30
2018-07-02T16:01:03.724Z,23.80
2018-07-02T16:03:31.701Z,23.90
2018-07-02T16:05:59.869Z,23.70
2018-07-02T16:08:27.775Z,23.80
2018-07-02T16:10:55.778Z,24.00
2018-07-02T16:13:23.697Z,23.90
2018-07-02T16:15:51.952Z,24.30
2018-07-02T16:18:20.338Z,24.00
2018-07-02T16:20:48.218Z,24.50
2018-07-02T16:23:16.357Z,24.40
2018-07-02T16:25:44.434Z,24.60
2018-07-02T16:28:12.560Z,25.70
2018-07-02T16:30:40.574Z,26.20
2018-07-02T16:33:08.634Z,26.50
2018-07-02T16:35:36.633Z,26.70
2018-07-02T16:38:05.027Z,26.80
2018-07-02T16:40:33.032Z,26.60
2018-07-02T16:43:01.056Z,26.20
2018-07-02T16:45:29.009Z,26.50
2018-07-02T16:47:56.950Z,26.20
2018-07-02T16:50:24.893Z,26.50
2018-07-02T16:52:52.878Z,26.70
2018-07-02T16:55:20.979Z,27.20
2018-07-02T16:57:49.124Z,27.50
2018-07-02T17:00:17.229Z,27.70
2018-07-02T17:02:45.231Z,27.10
2018-07-02T17:05:13.235Z,27.40
2018-07-02T17:07:41.353Z,27.30
2018-07-02T17:10:09.403Z,27.50
2018-07-02T17:12:37.293Z,27.10
2018-07-02T17:15:06.056Z,27.30
2018-07-02T17:17:34.029Z,27.20
2018-07-02T17:22:29.911Z,27.70
2018-07-02T17:27:27.060Z,27.80
2018-07-02T17:29:55.170Z,27.60
2018-07-02T17:32:23.260Z,27.70
2018-07-02T17:34:51.208Z,27.90
2018-07-02T17:37:19.173Z,28.30
2018-07-02T17:39:47.356Z,28.60
2018-07-02T17:42:15.446Z,28.90
2018-07-02T17:44:43.380Z,28.70
2018-07-02T17:47:11.313Z,28.60
2018-07-02T17:49:39.272Z,28.60
2018-07-02T17:52:07.294Z,29.00
2018-07-02T17:54:35.297Z,29.10
2018-07-02T17:57:03.382Z,29.50
2018-07-02T17:59:31.394Z,29.60
2018-07-02T18:01:59.374Z,29.90
2018-07-02T18:04:27.274Z,29.90
2018-07-02T18:06:55.212Z,30.00
2018-07-02T18:09:23.220Z,29.90
2018-07-02T18:11:51.220Z,30.00
2018-07-02T18:14:19.147Z,30.20
2018-07-02T18:16:47.199Z,30.20
2018-07-02T18:19:15.213Z,30.00
2018-07-02T18:21:49.509Z,30.10
2018-07-02T18:24:17.574Z,30.00
2018-07-02T18:26:45.585Z,30.00
2018-07-02T18:29:13.535Z,30.00
2018-07-02T18:31:41.530Z,30.50
2018-07-02T18:34:09.525Z,30.40
2018-07-02T18:36:37.411Z,30.40
2018-07-02T18:39:08.842Z,30.70
2018-07-02T18:41:36.965Z,31.10
2018-07-02T18:44:05.210Z,31.20
2018-07-02T18:46:33.184Z,31.10
2018-07-02T18:49:01.242Z,31.30
2018-07-02T18:51:29.178Z,31.50
2018-07-02T18:53:57.275Z,31.50
2018-07-02T18:56:25.297Z,31.70
2018-07-02T18:58:57.104Z,31.60
2018-07-02T19:03:52.875Z,31.80
2018-07-02T19:06:20.868Z,32.00
2018-07-02T19:08:48.798Z,32.10
2018-07-02T19:11:16.968Z,32.10
2018-07-02T19:13:44.904Z,32.20
2018-07-02T19:16:12.991Z,32.20
2018-07-02T19:18:41.053Z,31.90
2018-07-02T19:21:09.020Z,32.20
2018-07-02T19:23:37.045Z,32.50
2018-07-02T19:26:05.085Z,32.50
2018-07-02T19:28:33.170Z,32.80
2018-07-02T19:31:01.077Z,32.80
2018-07-02T19:33:29.085Z,33.00
2018-07-02T19:35:57.166Z,33.10
2018-07-02T19:38:25.126Z,32.90
2018-07-02T19:40:53.120Z,32.80
2018-07-02T19:43:21.340Z,32.70
2018-07-02T19:45:49.265Z,32.70
2018-07-02T19:48:17.197Z,33.20
2018-07-02T19:50:45.140Z,32.70
2018-07-02T19:53:13.126Z,32.50
2018-07-02T19:55:41.233Z,32.40
2018-07-02T19:58:09.261Z,32.10
2018-07-02T20:00:37.204Z,32.00
2018-07-02T20:03:05.368Z,31.70
2018-07-02T20:05:33.376Z,31.60
2018-07-02T20:08:01.310Z,31.40
2018-07-02T20:10:29.297Z,31.60
2018-07-02T20:12:57.743Z,31.70
2018-07-02T20:15:25.768Z,31.80
2018-07-02T20:17:55.209Z,32.20
2018-07-02T20:22:51.156Z,32.10
2018-07-02T20:25:19.097Z,32.50
2018-07-02T20:27:47.301Z,32.70
2018-07-02T20:30:15.353Z,32.80
2018-07-02T20:32:43.279Z,32.80
2018-07-02T20:35:11.369Z,33.10
2018-07-02T20:37:39.303Z,33.20
2018-07-02T20:40:09.390Z,33.20
2018-07-02T20:42:37.339Z,33.30
2018-07-02T20:45:06.191Z,33.50
2018-07-02T20:47:34.277Z,33.70
2018-07-02T20:52:38.013Z,34.00
2018-07-02T20:55:05.982Z,34.20
2018-07-02T20:57:34.005Z,33.90
2018-07-02T21:00:02.254Z,34.20
2018-07-02T21:02:30.175Z,34.40
2018-07-02T21:04:58.436Z,34.30
2018-07-02T21:10:01.564Z,34.50
2018-07-02T21:12:36.026Z,34.50
2018-07-02T21:15:04.504Z,34.60
2018-07-02T21:17:32.466Z,34.50
2018-07-02T21:20:00.534Z,34.70
2018-07-02T21:22:28.562Z,35.50
2018-07-02T21:24:56.581Z,35.10
2018-07-02T21:27:24.591Z,35.30
2018-07-02T21:29:52.523Z,35.30
2018-07-02T21:32:20.425Z,35.10
2018-07-02T21:34:48.354Z,35.10
2018-07-02T21:37:16.274Z,35.40
2018-07-02T21:39:44.276Z,35.20
2018-07-02T21:42:12.263Z,35.30
2018-07-02T21:44:40.218Z,35.20
2018-07-02T21:47:08.102Z,35.10
2018-07-02T21:49:36.091Z,34.90
2018-07-02T21:52:04.059Z,34.80
2018-07-02T21:54:31.996Z,34.70
2018-07-02T21:57:00.037Z,34.80
2018-07-02T21:59:27.964Z,34.80
2018-07-02T22:01:55.908Z,34.90
2018-07-02T22:04:23.860Z,35.10
2018-07-02T22:06:51.776Z,35.90
2018-07-02T22:09:19.798Z,35.20
2018-07-02T22:11:47.784Z,35.20
2018-07-02T22:14:15.604Z,35.40
2018-07-02T22:16:43.578Z,35.70
2018-07-02T22:19:11.606Z,36.50
2018-07-02T22:21:39.518Z,35.70
2018-07-02T22:24:07.490Z,35.90
2018-07-02T22:26:36.553Z,36.10
2018-07-02T22:29:05.036Z,36.00
2018-07-02T22:31:32.909Z,35.70
2018-07-02T22:34:01.512Z,36.00
2018-07-02T22:36:29.649Z,35.80
2018-07-02T22:38:58.162Z,36.00
2018-07-02T22:41:26.577Z,36.50
2018-07-02T22:43:54.492Z,36.60
2018-07-02T22:46:22.371Z,36.70
2018-07-02T22:48:50.210Z,36.60
2018-07-02T22:53:45.949Z,37.30
2018-07-02T22:56:13.907Z,37.10
2018-07-02T22:58:41.835Z,37.10
2018-07-02T23:01:09.761Z,37.00
2018-07-02T23:03:37.711Z,37.30
2018-07-02T23:06:05.710Z,37.00
2018-07-02T23:08:33.650Z,37.50
2018-07-02T23:11:01.574Z,37.40
2018-07-02T23:13:29.595Z,37.70
2018-07-02T23:16:01.806Z,37.60
2018-07-02T23:18:30.455Z,37.90
2018-07-02T23:23:26.393Z,38.00
2018-07-02T23:25:54.334Z,38.10
2018-07-02T23:28:22.292Z,38.10
2018-07-02T23:30:50.307Z,37.90
2018-07-02T23:33:18.221Z,38.00
2018-07-02T23:35:46.504Z,38.40
2018-07-02T23:38:14.373Z,38.40
2018-07-02T23:40:42.284Z,38.50
2018-07-02T23:43:10.195Z,39.00
2018-07-02T23:45:38.124Z,39.20
2018-07-02T23:48:06.015Z,39.50
2018-07-02T23:50:34.026Z,39.80
2018-07-02T23:53:01.855Z,40.20
2018-07-02T23:55:29.777Z,40.30
2018-07-02T23:57:57.662Z,40.50
